TimeCDT,TemperatureF,Dew PointF,Humidity,Sea Level PressureIn,VisibilityMPH,Wind Direction,Wind SpeedMPH,Gust SpeedMPH,PrecipitationIn,Events,Conditions,WindDirDegrees,DateUTC
12:15 AM,51.8,46.4,82,30.05,10.0,SSE,4.6,-,N/A,,Clear,160,2013-10-08 05:15:00
12:35 AM,51.8,46.2,81,30.05,10.0,Calm,Calm,-,N/A,,Clear,0,2013-10-08 05:35:00
12:55 AM,51.8,45.7,80,30.06,10.0,SE,5.8,-,N/A,,Clear,140,2013-10-08 05:55:00
1:15 AM,51.8,43.7,74,30.06,10.0,SSE,3.5,-,N/A,,Clear,160,2013-10-08 06:15:00
1:35 AM,51.8,43.3,73,30.06,10.0,SSE,4.6,-,N/A,,Clear,160,2013-10-08 06:35:00
1:55 AM,51.8,43.3,73,30.06,10.0,South,3.5,-,N/A,,Clear,170,2013-10-08 06:55:00
2:15 AM,51.8,43.7,74,30.06,10.0,South,3.5,-,N/A,,Clear,170,2013-10-08 07:15:00
2:35 AM,51.8,43.7,74,30.06,10.0,South,3.5,-,N/A,,Clear,170,2013-10-08 07:35:00
2:55 AM,51.8,44.1,75,30.06,10.0,South,3.5,-,N/A,,Clear,180,2013-10-08 07:55:00
3:15 AM,51.8,44.6,76,30.06,10.0,South,3.5,-,N/A,,Clear,180,2013-10-08 08:15:00
3:35 AM,51.8,44.8,77,30.06,10.0,South,4.6,-,N/A,,Clear,180,2013-10-08 08:35:00
3:55 AM,51.8,45.0,77,30.06,10.0,South,3.5,-,N/A,,Clear,180,2013-10-08 08:55:00
4:15 AM,51.8,45.5,79,30.07,10.0,South,3.5,-,N/A,,Clear,180,2013-10-08 09:15:00
4:35 AM,50.5,44.4,80,30.07,10.0,South,3.5,-,N/A,,Clear,170,2013-10-08 09:35:00
4:55 AM,51.8,45.5,79,30.07,10.0,South,4.6,-,N/A,,Clear,180,2013-10-08 09:55:00
5:15 AM,51.8,45.5,79,30.08,10.0,South,4.6,-,N/A,,Clear,180,2013-10-08 10:15:00
5:35 AM,51.8,45.5,79,30.08,10.0,South,4.6,-,N/A,,Clear,180,2013-10-08 10:35:00
5:55 AM,51.8,45.0,77,30.09,10.0,South,3.5,-,N/A,,Clear,180,2013-10-08 10:55:00
6:15 AM,51.8,45.0,77,30.09,10.0,South,5.8,-,N/A,,Clear,180,2013-10-08 11:15:00
6:35 AM,51.8,44.8,77,30.08,10.0,South,4.6,-,N/A,,Clear,180,2013-10-08 11:35:00
6:55 AM,51.8,45.0,77,30.09,10.0,South,4.6,-,N/A,,Clear,180,2013-10-08 11:55:00
7:15 AM,51.8,45.1,78,30.09,10.0,South,4.6,-,N/A,,Clear,180,2013-10-08 12:15:00
7:35 AM,51.8,45.0,77,30.09,10.0,South,4.6,-,N/A,,Clear,180,2013-10-08 12:35:00
7:55 AM,51.8,44.2,75,30.10,10.0,South,4.6,-,N/A,,Clear,180,2013-10-08 12:55:00
8:15 AM,53.1,44.8,73,30.10,10.0,South,5.8,-,N/A,,Clear,180,2013-10-08 13:15:00
8:35 AM,56.1,46.6,70,30.10,10.0,South,5.8,-,N/A,,Clear,190,2013-10-08 13:35:00
8:55 AM,56.7,45.1,65,30.10,10.0,South,8.1,-,N/A,,Clear,180,2013-10-08 13:55:00
9:15 AM,59.2,46.0,62,30.10,10.0,SSW,5.8,-,N/A,,Clear,200,2013-10-08 14:15:00
9:35 AM,61.9,45.7,55,30.10,10.0,SSW,8.1,-,N/A,,Clear,200,2013-10-08 14:35:00
9:55 AM,64.4,44.4,48,30.10,10.0,SSW,8.1,-,N/A,,Clear,200,2013-10-08 14:55:00
10:15 AM,67.3,44.6,44,30.10,10.0,SSW,10.4,-,N/A,,Clear,200,2013-10-08 15:15:00
10:35 AM,71.8,46.6,41,30.10,10.0,SSW,6.9,-,N/A,,Clear,200,2013-10-08 15:35:00
10:55 AM,71.8,44.1,37,30.10,10.0,SSW,9.2,-,N/A,,Clear,200,2013-10-08 15:55:00
11:15 AM,74.3,41.7,31,30.09,10.0,South,12.7,17.3,N/A,,Clear,190,2013-10-08 16:15:00
11:35 AM,77.0,41.5,28,30.09,10.0,SSW,11.5,18.4,N/A,,Clear,200,2013-10-08 16:35:00
11:55 AM,77.0,40.3,27,30.09,10.0,South,11.5,18.4,N/A,,Clear,190,2013-10-08 16:55:00
12:15 PM,77.0,38.1,25,30.08,10.0,South,10.4,18.4,N/A,,Clear,190,2013-10-08 17:15:00
12:35 PM,77.0,36.0,23,30.07,10.0,SSW,17.3,25.3,N/A,,Clear,200,2013-10-08 17:35:00
12:55 PM,77.5,34.9,21,30.07,10.0,SSW,13.8,23.0,N/A,,Clear,200,2013-10-08 17:55:00
1:15 PM,79.3,36.7,22,30.06,10.0,South,13.8,21.9,N/A,,Clear,190,2013-10-08 18:15:00
1:35 PM,79.3,35.4,20,30.05,10.0,South,11.5,21.9,N/A,,Clear,190,2013-10-08 18:35:00
1:55 PM,79.3,34.5,20,30.04,10.0,SSW,16.1,24.2,N/A,,Clear,200,2013-10-08 18:55:00
2:15 PM,79.3,33.6,19,30.04,10.0,SSW,17.3,25.3,N/A,,Clear,200,2013-10-08 19:15:00
2:35 PM,79.5,33.6,19,30.03,10.0,SSW,16.1,21.9,N/A,,Clear,210,2013-10-08 19:35:00
2:55 PM,80.6,35.8,20,30.03,10.0,SSW,13.8,21.9,N/A,,Clear,210,2013-10-08 19:55:00
3:15 PM,79.3,36.0,21,30.03,10.0,South,11.5,23.0,N/A,,Clear,180,2013-10-08 20:15:00
3:35 PM,80.8,35.6,20,30.03,10.0,South,12.7,20.7,N/A,,Clear,190,2013-10-08 20:35:00
3:55 PM,79.3,35.1,20,30.02,10.0,South,15.0,23.0,N/A,,Clear,190,2013-10-08 20:55:00
4:15 PM,79.3,34.5,20,30.02,10.0,SSW,17.3,21.9,N/A,,Clear,200,2013-10-08 21:15:00
4:35 PM,79.3,34.9,20,30.02,10.0,South,11.5,18.4,N/A,,Clear,180,2013-10-08 21:35:00
4:55 PM,79.3,36.5,21,30.02,10.0,South,10.4,-,N/A,,Clear,190,2013-10-08 21:55:00
5:15 PM,79.3,37.0,22,30.02,10.0,South,8.1,19.6,N/A,,Clear,190,2013-10-08 22:15:00
5:35 PM,77.0,35.4,22,30.02,10.0,South,11.5,19.6,N/A,,Clear,180,2013-10-08 22:35:00
5:55 PM,77.0,36.5,23,30.02,10.0,South,11.5,16.1,N/A,,Clear,180,2013-10-08 22:55:00
6:15 PM,77.0,38.8,25,30.02,10.0,South,9.2,-,N/A,,Clear,170,2013-10-08 23:15:00
6:35 PM,72.1,37.6,28,30.03,10.0,South,8.1,-,N/A,,Clear,170,2013-10-08 23:35:00
6:55 PM,71.8,39.9,31,30.03,10.0,SSE,5.8,-,N/A,,Clear,160,2013-10-08 23:55:00
7:15 PM,69.4,41.0,36,30.03,10.0,SSE,8.1,-,N/A,,Clear,160,2013-10-09 00:15:00
7:35 PM,66.7,40.8,39,30.03,10.0,SSE,9.2,-,N/A,,Clear,160,2013-10-09 00:35:00
7:55 PM,66.7,41.0,39,30.03,10.0,South,9.2,-,N/A,,Clear,170,2013-10-09 00:55:00
8:15 PM,66.7,41.7,40,30.04,10.0,South,9.2,-,N/A,,Clear,170,2013-10-09 01:15:00
8:35 PM,65.5,41.9,42,30.04,10.0,SSE,11.5,18.4,N/A,,Clear,160,2013-10-09 01:35:00
8:55 PM,64.6,42.8,45,30.04,10.0,South,12.7,18.4,N/A,,Clear,170,2013-10-09 01:55:00
9:15 PM,64.6,42.8,45,30.05,10.0,South,9.2,17.3,N/A,,Clear,180,2013-10-09 02:15:00
9:35 PM,64.4,43.2,46,30.06,10.0,South,9.2,16.1,N/A,,Clear,180,2013-10-09 02:35:00
9:55 PM,63.3,43.5,48,30.06,10.0,South,10.4,-,N/A,,Clear,180,2013-10-09 02:55:00
10:15 PM,63.0,43.7,49,30.06,10.0,South,9.2,-,N/A,,Clear,170,2013-10-09 03:15:00
10:35 PM,62.2,43.9,51,30.06,10.0,South,9.2,-,N/A,,Clear,180,2013-10-09 03:35:00
10:55 PM,61.7,43.7,52,30.07,10.0,South,6.9,-,N/A,,Clear,170,2013-10-09 03:55:00
11:15 PM,61.7,44.6,53,30.07,10.0,South,6.9,-,N/A,,Clear,170,2013-10-09 04:15:00
11:35 PM,61.7,45.5,55,30.07,10.0,South,8.1,-,N/A,,Clear,170,2013-10-09 04:35:00
11:55 PM,59.4,44.2,57,30.08,10.0,South,6.9,-,N/A,,Clear,170,2013-10-09 04:55:00